createdAt,value
2023-06-07T00:02:42.962Z,54.20
2023-06-07T00:05:29.776Z,53.70
2023-06-07T00:08:15.561Z,53.50
2023-06-07T00:11:01.086Z,53.90
2023-06-07T00:13:46.675Z,53.80
2023-06-07T00:16:32.662Z,54.10
2023-06-07T00:19:18.365Z,54.20
2023-06-07T00:22:04.572Z,53.40
2023-06-07T00:24:55.117Z,53.10
2023-06-07T00:27:40.801Z,53.90
2023-06-07T00:30:26.171Z,54.60
2023-06-07T00:33:11.753Z,53.30
2023-06-07T00:35:57.860Z,52.80
2023-06-07T00:38:43.223Z,52.70
2023-06-07T00:41:29.161Z,53.50
2023-06-07T00:44:14.520Z,53.50
2023-06-07T00:47:01.421Z,53.40
2023-06-07T00:49:46.904Z,53.30
2023-06-07T00:52:36.235Z,53.10
2023-06-07T00:55:22.451Z,53.30
2023-06-07T00:58:15.302Z,53.90
2023-06-07T01:01:02.314Z,54.20
2023-06-07T01:03:48.256Z,54.10
2023-06-07T01:06:33.831Z,54.10
2023-06-07T01:09:20.475Z,53.70
2023-06-07T01:12:11.064Z,53.30
2023-06-07T01:14:57.900Z,53.90
2023-06-07T01:17:44.781Z,54.70
2023-06-07T01:20:32.453Z,54.80
2023-06-07T01:23:24.785Z,54.20
2023-06-07T01:26:10.993Z,54.80
2023-06-07T01:28:58.935Z,55.50
2023-06-07T01:31:58.075Z,55.30
2023-06-07T01:34:47.929Z,55.30
2023-06-07T01:37:36.035Z,56.00
2023-06-07T01:40:31.548Z,56.30
2023-06-07T01:43:19.546Z,55.80
2023-06-07T01:46:06.565Z,55.80
2023-06-07T01:48:52.683Z,56.30
2023-06-07T01:51:38.219Z,56.50
2023-06-07T01:54:24.221Z,56.90
2023-06-07T01:58:20.945Z,57.10
2023-06-07T02:01:31.810Z,70.90
2023-06-07T02:04:21.771Z,57.50
2023-06-07T02:07:15.466Z,56.10
2023-06-07T02:10:04.905Z,56.90
2023-06-07T02:12:55.486Z,56.00
2023-06-07T02:15:42.192Z,56.20
2023-06-07T02:18:27.997Z,56.20
2023-06-07T02:21:13.369Z,56.40
2023-06-07T02:23:59.053Z,55.60
2023-06-07T02:26:44.857Z,55.40
2023-06-07T02:29:30.377Z,55.60
2023-06-07T02:32:15.786Z,56.00
2023-06-07T02:35:01.258Z,55.10
2023-06-07T02:37:47.058Z,56.40
2023-06-07T02:40:32.703Z,56.20
2023-06-07T02:43:20.724Z,56.00
2023-06-07T02:46:06.644Z,56.10
2023-06-07T02:48:52.279Z,56.20
2023-06-07T02:51:37.874Z,56.20
2023-06-07T02:54:23.443Z,55.90
2023-06-07T02:57:09.440Z,55.40
2023-06-07T02:59:54.913Z,56.10
2023-06-07T03:02:40.547Z,55.80
2023-06-07T03:05:25.930Z,55.70
2023-06-07T03:08:11.740Z,55.30
2023-06-07T03:10:58.112Z,55.60
2023-06-07T03:13:43.686Z,55.70
2023-06-07T03:16:29.074Z,56.20
2023-06-07T03:19:14.548Z,55.90
2023-06-07T03:22:00.067Z,55.40
2023-06-07T03:24:45.519Z,54.80
2023-06-07T03:27:31.656Z,55.00
2023-06-07T03:30:17.376Z,54.90
2023-06-07T03:33:03.399Z,55.00
2023-06-07T03:35:49.282Z,55.00
2023-06-07T03:38:37.016Z,55.70
2023-06-07T03:41:22.831Z,56.10
2023-06-07T03:44:08.512Z,57.70
2023-06-07T03:46:54.037Z,57.40
2023-06-07T03:49:39.601Z,58.20
2023-06-07T03:52:25.249Z,56.80
2023-06-07T03:55:13.920Z,55.80
2023-06-07T03:58:01.372Z,55.30
2023-06-07T04:00:50.035Z,55.90
2023-06-07T04:03:35.878Z,55.30
2023-06-07T04:06:21.673Z,55.00
2023-06-07T04:09:09.909Z,54.60
2023-06-07T04:11:55.596Z,55.00
2023-06-07T04:14:41.165Z,55.50
2023-06-07T04:17:26.609Z,55.40
2023-06-07T04:20:13.082Z,55.60
2023-06-07T04:22:58.604Z,55.00
2023-06-07T04:25:44.050Z,54.70
2023-06-07T04:28:30.116Z,54.20
2023-06-07T04:31:15.515Z,55.30
2023-06-07T04:34:01.512Z,55.50
2023-06-07T04:36:46.983Z,55.30
2023-06-07T04:39:47.175Z,55.50
2023-06-07T04:42:35.840Z,55.10
2023-06-07T04:45:22.572Z,54.90
2023-06-07T04:48:08.707Z,54.50
2023-06-07T04:50:58.015Z,54.50
2023-06-07T04:53:43.819Z,54.50
2023-06-07T04:56:29.457Z,54.60
2023-06-07T04:59:16.057Z,54.40
2023-06-07T05:02:03.053Z,54.20
2023-06-07T05:04:48.573Z,54.00
2023-06-07T05:07:34.580Z,54.00
2023-06-07T05:10:20.638Z,53.90
2023-06-07T05:13:06.269Z,55.00
2023-06-07T05:15:52.119Z,54.00
2023-06-07T05:18:37.702Z,53.70
2023-06-07T05:21:23.370Z,53.10
2023-06-07T05:24:12.328Z,53.60
2023-06-07T05:26:59.230Z,53.00
2023-06-07T05:29:46.485Z,53.10
2023-06-07T05:32:34.043Z,53.20
2023-06-07T05:35:19.840Z,53.20
2023-06-07T05:38:05.393Z,52.80
2023-06-07T05:40:53.304Z,52.60
2023-06-07T05:43:38.842Z,52.90
2023-06-07T05:46:24.313Z,52.60
2023-06-07T05:49:11.721Z,52.90
2023-06-07T05:51:57.548Z,52.60
2023-06-07T05:54:51.004Z,53.20
2023-06-07T05:57:37.014Z,52.80
2023-06-07T06:00:23.139Z,52.40
2023-06-07T06:03:11.666Z,52.90
2023-06-07T06:05:58.215Z,52.40
2023-06-07T06:08:45.609Z,52.70
2023-06-07T06:11:32.034Z,52.90
2023-06-07T06:14:17.856Z,52.60
2023-06-07T06:17:03.857Z,52.70
2023-06-07T06:19:49.456Z,52.50
2023-06-07T06:22:35.473Z,52.50
2023-06-07T06:25:21.044Z,52.10
2023-06-07T06:28:09.101Z,52.50
2023-06-07T06:30:57.796Z,52.50
2023-06-07T06:33:43.800Z,52.10
2023-06-07T06:36:31.977Z,52.30
2023-06-07T06:39:18.062Z,52.10
2023-06-07T06:42:04.246Z,52.60
2023-06-07T06:44:50.283Z,52.60
2023-06-07T06:47:36.024Z,53.20
2023-06-07T06:50:32.286Z,52.40
2023-06-07T06:53:19.523Z,51.80
2023-06-07T06:56:05.497Z,51.70
2023-06-07T06:58:51.221Z,51.50
2023-06-07T07:01:48.860Z,51.30
2023-06-07T07:04:34.384Z,51.20
2023-06-07T07:07:20.459Z,51.00
2023-06-07T07:10:09.389Z,50.90
2023-06-07T07:12:58.196Z,51.00
2023-06-07T07:15:43.996Z,50.80
2023-06-07T07:18:29.615Z,51.00
2023-06-07T07:21:15.336Z,51.00
2023-06-07T07:24:00.903Z,51.40
2023-06-07T07:26:46.925Z,51.40
2023-06-07T07:29:33.005Z,52.00
2023-06-07T07:32:18.486Z,51.60
2023-06-07T07:35:04.793Z,51.60
2023-06-07T07:37:51.029Z,51.30
2023-06-07T07:40:36.772Z,51.60
2023-06-07T07:43:25.189Z,52.20
2023-06-07T07:46:11.177Z,52.10
2023-06-07T07:48:57.380Z,52.10
2023-06-07T07:51:42.658Z,52.10
2023-06-07T07:54:30.265Z,52.40
2023-06-07T07:57:15.964Z,52.10
2023-06-07T08:00:01.669Z,52.00
2023-06-07T08:02:47.051Z,52.50
2023-06-07T08:05:33.020Z,52.40
2023-06-07T08:08:18.603Z,52.40
2023-06-07T08:11:04.176Z,51.60
2023-06-07T08:13:49.592Z,51.80
2023-06-07T08:16:35.225Z,51.60
2023-06-07T08:19:21.147Z,51.30
2023-06-07T08:22:07.374Z,51.10
2023-06-07T08:24:53.319Z,50.80
2023-06-07T08:27:39.012Z,51.00
2023-06-07T08:30:25.197Z,50.60
2023-06-07T08:33:10.791Z,51.00
2023-06-07T08:35:56.660Z,51.20
2023-06-07T08:38:43.030Z,51.00
2023-06-07T08:41:29.046Z,51.20
2023-06-07T08:44:14.892Z,50.90
2023-06-07T08:47:04.130Z,50.90
2023-06-07T08:49:56.092Z,50.90
2023-06-07T08:52:43.837Z,50.90
2023-06-07T08:55:34.865Z,50.80
2023-06-07T08:58:20.788Z,50.60
2023-06-07T09:01:06.916Z,49.80
2023-06-07T09:03:55.842Z,49.40
2023-06-07T09:06:41.665Z,50.00
2023-06-07T09:09:27.497Z,50.10
2023-06-07T09:12:13.002Z,50.30
2023-06-07T09:14:58.740Z,50.10
2023-06-07T09:18:01.465Z,49.90
2023-06-07T09:20:47.204Z,50.60
2023-06-07T09:23:40.771Z,48.70
2023-06-07T09:26:38.596Z,48.80
2023-06-07T09:29:24.649Z,48.70
2023-06-07T09:32:23.064Z,47.90
2023-06-07T09:35:19.804Z,46.30
2023-06-07T09:38:05.872Z,47.30
2023-06-07T09:40:52.409Z,47.20
2023-06-07T09:43:50.014Z,48.20
2023-06-07T09:46:36.316Z,46.40
2023-06-07T09:49:36.665Z,47.90
2023-06-07T09:52:23.082Z,46.30
2023-06-07T09:55:26.186Z,48.00
2023-06-07T09:58:22.189Z,47.60
2023-06-07T10:01:08.109Z,46.30
2023-06-07T10:03:54.118Z,47.70
2023-06-07T10:06:45.990Z,47.60
2023-06-07T10:09:32.322Z,47.60
2023-06-07T10:12:22.601Z,47.20
2023-06-07T10:15:19.429Z,47.80
2023-06-07T10:18:17.717Z,47.50
2023-06-07T10:21:14.748Z,47.10
2023-06-07T10:24:08.172Z,46.50
2023-06-07T10:27:09.907Z,48.00
2023-06-07T10:30:11.209Z,47.90
2023-06-07T10:32:59.362Z,48.00
2023-06-07T10:35:46.610Z,48.10
2023-06-07T10:38:34.643Z,48.10
2023-06-07T10:41:20.374Z,47.90
2023-06-07T10:44:06.111Z,48.00
2023-06-07T10:47:30.888Z,48.20
2023-06-07T10:50:28.657Z,47.10
2023-06-07T10:53:15.009Z,47.00
2023-06-07T10:56:34.816Z,49.10
2023-06-07T10:59:22.910Z,48.60
2023-06-07T11:02:24.634Z,48.70
2023-06-07T11:05:10.857Z,47.50
2023-06-07T11:08:23.628Z,49.00
2023-06-07T11:11:41.369Z,46.40
2023-06-07T11:14:27.111Z,46.50
2023-06-07T11:18:01.812Z,49.80
2023-06-07T11:20:48.212Z,48.10
2023-06-07T11:23:34.022Z,50.30
2023-06-07T11:26:19.810Z,50.70
2023-06-07T11:29:07.557Z,50.30
2023-06-07T11:32:02.512Z,50.00
2023-06-07T11:34:57.248Z,49.10
2023-06-07T11:37:46.038Z,49.40
2023-06-07T11:40:32.329Z,49.60
2023-06-07T11:43:27.999Z,49.80
2023-06-07T11:46:18.464Z,49.80
2023-06-07T11:49:11.080Z,50.00
2023-06-07T11:52:00.408Z,49.80
2023-06-07T11:54:45.946Z,49.80
2023-06-07T11:57:31.393Z,50.00
2023-06-07T12:00:21.223Z,50.10
2023-06-07T12:03:09.006Z,49.90
2023-06-07T12:05:55.074Z,49.70
2023-06-07T12:08:40.552Z,49.40
2023-06-07T12:11:26.120Z,49.50
2023-06-07T12:14:33.398Z,49.30
2023-06-07T12:17:20.491Z,50.00
2023-06-07T12:20:13.250Z,49.20
2023-06-07T12:23:08.522Z,49.00
2023-06-07T12:26:10.783Z,48.90
2023-06-07T12:28:56.943Z,49.00
2023-06-07T12:31:42.562Z,48.70
2023-06-07T12:34:31.394Z,48.50
2023-06-07T12:37:17.936Z,48.40
2023-06-07T12:40:06.120Z,48.20
2023-06-07T12:42:52.186Z,47.90
2023-06-07T12:45:40.535Z,47.80
2023-06-07T12:48:26.258Z,47.80
2023-06-07T12:51:11.624Z,47.70
2023-06-07T12:53:57.840Z,47.60
2023-06-07T12:56:43.707Z,47.30
2023-06-07T12:59:29.063Z,47.10
2023-06-07T13:02:14.548Z,47.00
2023-06-07T13:05:03.209Z,46.80
2023-06-07T13:07:48.895Z,46.60
2023-06-07T13:10:34.826Z,46.90
2023-06-07T13:13:20.491Z,47.50
2023-06-07T13:16:09.141Z,47.60
2023-06-07T13:18:55.217Z,47.60
2023-06-07T13:21:41.137Z,47.30
2023-06-07T13:24:26.658Z,47.30
2023-06-07T13:27:12.213Z,47.60
2023-06-07T13:30:00.512Z,47.20
2023-06-07T13:32:47.218Z,47.00
2023-06-07T13:35:36.758Z,47.20
2023-06-07T13:38:26.025Z,47.40
2023-06-07T13:41:11.850Z,47.20
2023-06-07T13:44:12.356Z,47.90
2023-06-07T13:47:02.786Z,48.00
2023-06-07T13:49:48.719Z,48.20
2023-06-07T13:52:34.320Z,48.10
2023-06-07T13:55:20.018Z,48.00
2023-06-07T13:58:05.510Z,47.80
2023-06-07T14:00:52.598Z,47.70
2023-06-07T14:03:39.408Z,48.00
2023-06-07T14:06:25.357Z,47.90
2023-06-07T14:09:11.185Z,47.90
2023-06-07T14:11:57.290Z,48.00
2023-06-07T14:14:43.553Z,48.10
2023-06-07T14:17:29.484Z,48.00
2023-06-07T14:20:15.098Z,47.90
2023-06-07T14:23:00.330Z,47.90
2023-06-07T14:25:45.927Z,47.80
2023-06-07T14:28:31.499Z,47.70
2023-06-07T14:31:17.795Z,47.70
2023-06-07T14:34:03.602Z,47.70
2023-06-07T14:36:52.102Z,47.60
2023-06-07T14:39:38.017Z,47.50
2023-06-07T14:42:24.423Z,47.40
2023-06-07T14:45:11.312Z,47.40
2023-06-07T14:47:56.754Z,47.30
2023-06-07T14:50:42.636Z,47.20
2023-06-07T14:53:28.130Z,47.20
2023-06-07T14:56:13.683Z,47.80
2023-06-07T14:58:59.095Z,47.10
2023-06-07T15:01:44.723Z,47.10
2023-06-07T15:04:30.425Z,47.00
2023-06-07T15:07:16.140Z,47.00
2023-06-07T15:10:01.955Z,47.00
2023-06-07T15:12:47.928Z,47.00
2023-06-07T15:15:36.675Z,46.90
2023-06-07T15:18:22.764Z,46.80
2023-06-07T15:21:08.464Z,47.00
2023-06-07T15:23:54.438Z,46.90
2023-06-07T15:26:39.895Z,46.80
2023-06-07T15:29:25.690Z,46.80
2023-06-07T15:32:11.815Z,46.80
2023-06-07T15:34:57.379Z,46.70
2023-06-07T15:37:42.870Z,46.70
2023-06-07T15:40:28.251Z,46.60
2023-06-07T15:43:13.910Z,46.60
2023-06-07T15:46:00.424Z,46.50
2023-06-07T15:48:45.834Z,46.50
2023-06-07T15:51:31.238Z,46.50
2023-06-07T15:54:16.599Z,46.60
2023-06-07T15:57:02.174Z,46.50
2023-06-07T15:59:47.820Z,46.50
2023-06-07T16:02:38.286Z,46.40
2023-06-07T16:05:23.961Z,46.20
2023-06-07T16:08:13.873Z,46.10
2023-06-07T16:11:00.607Z,45.90
2023-06-07T16:13:46.384Z,46.50
2023-06-07T16:16:32.555Z,46.00
2023-06-07T16:19:19.135Z,45.90
2023-06-07T16:22:05.172Z,45.80
2023-06-07T16:24:50.692Z,45.80
2023-06-07T16:27:36.071Z,45.90
2023-06-07T16:30:24.817Z,45.70
2023-06-07T16:33:10.929Z,45.80
2023-06-07T16:35:56.468Z,45.90
2023-06-07T16:38:42.136Z,45.90
2023-06-07T16:41:27.944Z,45.90
2023-06-07T16:44:13.484Z,46.10
2023-06-07T16:46:59.299Z,46.10
2023-06-07T16:49:45.264Z,46.10
2023-06-07T16:52:30.774Z,46.10
2023-06-07T16:55:17.583Z,46.10
2023-06-07T16:58:03.307Z,46.20
2023-06-07T17:00:52.581Z,46.30
2023-06-07T17:03:38.554Z,46.40
2023-06-07T17:06:24.309Z,46.40
2023-06-07T17:09:10.516Z,46.50
2023-06-07T17:11:56.392Z,46.60
2023-06-07T17:14:46.772Z,46.70
2023-06-07T17:17:34.260Z,46.90
2023-06-07T17:20:19.789Z,47.00
2023-06-07T17:23:05.524Z,47.00
2023-06-07T17:25:51.378Z,47.30
2023-06-07T17:28:40.326Z,47.40
2023-06-07T17:31:25.588Z,48.50
2023-06-07T17:34:14.206Z,48.00
2023-06-07T17:36:59.671Z,48.10
2023-06-07T17:39:45.180Z,48.20
2023-06-07T17:42:30.724Z,48.30
2023-06-07T17:45:16.306Z,48.40
2023-06-07T17:48:02.519Z,48.30
2023-06-07T17:50:48.204Z,48.40
2023-06-07T17:53:33.545Z,48.50
2023-06-07T17:56:19.060Z,48.70
2023-06-07T17:59:04.572Z,48.70
2023-06-07T18:01:50.145Z,48.60
2023-06-07T18:04:36.043Z,48.70
2023-06-07T18:07:21.816Z,49.20
2023-06-07T18:10:09.074Z,49.50
2023-06-07T18:12:55.198Z,49.60
2023-06-07T18:15:40.608Z,49.70
2023-06-07T18:18:26.840Z,49.30
2023-06-07T18:21:12.994Z,49.60
2023-06-07T18:23:59.118Z,49.70
2023-06-07T18:26:45.248Z,49.80
2023-06-07T18:29:31.054Z,50.10
2023-06-07T18:32:16.630Z,50.20
2023-06-07T18:35:03.124Z,50.00
2023-06-07T18:37:48.929Z,50.10
2023-06-07T18:40:34.485Z,50.40
2023-06-07T18:43:20.799Z,50.40
2023-06-07T18:46:06.903Z,50.80
2023-06-07T18:48:55.276Z,51.10
2023-06-07T18:51:41.287Z,51.50
2023-06-07T18:54:27.193Z,52.60
2023-06-07T18:57:13.323Z,52.10
2023-06-07T18:59:58.890Z,52.70
2023-06-07T19:02:44.864Z,52.40
2023-06-07T19:05:30.566Z,51.90
2023-06-07T19:08:16.240Z,52.00
2023-06-07T19:11:03.170Z,52.40
2023-06-07T19:13:51.497Z,52.50
2023-06-07T19:16:39.615Z,52.40
2023-06-07T19:19:25.362Z,52.30
2023-06-07T19:22:12.356Z,52.60
2023-06-07T19:24:58.383Z,53.00
2023-06-07T19:27:48.429Z,53.80
2023-06-07T19:30:37.795Z,53.10
2023-06-07T19:33:26.379Z,54.30
2023-06-07T19:36:13.956Z,54.20
2023-06-07T19:38:59.683Z,53.10
2023-06-07T19:41:46.546Z,53.70
2023-06-07T19:44:32.192Z,53.30
2023-06-07T19:47:19.322Z,53.50
2023-06-07T19:50:08.964Z,53.20
2023-06-07T19:52:54.677Z,53.00
2023-06-07T19:55:41.403Z,53.00
2023-06-07T19:58:33.881Z,52.90
2023-06-07T20:01:19.979Z,52.50
2023-06-07T20:04:05.985Z,53.00
2023-06-07T20:06:54.047Z,53.10
2023-06-07T20:09:41.745Z,53.30
2023-06-07T20:12:27.621Z,53.30
2023-06-07T20:15:13.717Z,53.80
2023-06-07T20:17:59.776Z,53.90
2023-06-07T20:20:45.634Z,54.30
2023-06-07T20:23:31.815Z,54.30
2023-06-07T20:26:18.360Z,54.10
2023-06-07T20:29:04.033Z,53.90
2023-06-07T20:31:50.722Z,54.30
2023-06-07T20:34:36.660Z,54.00
2023-06-07T20:37:22.810Z,54.60
2023-06-07T20:40:12.121Z,54.30
2023-06-07T20:42:57.708Z,54.30
2023-06-07T20:45:43.319Z,54.50
2023-06-07T20:48:31.574Z,54.60
2023-06-07T20:51:18.572Z,54.70
2023-06-07T20:54:09.850Z,55.70
2023-06-07T20:56:55.645Z,55.10
2023-06-07T20:59:50.611Z,55.30
2023-06-07T21:02:36.561Z,56.90
2023-06-07T21:05:22.514Z,55.80
2023-06-07T21:08:08.527Z,56.10
2023-06-07T21:10:54.294Z,55.60
2023-06-07T21:13:42.853Z,55.00
2023-06-07T21:16:28.515Z,54.90
2023-06-07T21:19:17.300Z,55.90
2023-06-07T21:22:03.349Z,55.30
2023-06-07T21:24:49.296Z,55.10
2023-06-07T21:27:35.058Z,55.00
2023-06-07T21:30:21.927Z,54.90
2023-06-07T21:33:07.988Z,54.80
2023-06-07T21:35:53.604Z,55.70
2023-06-07T21:38:42.219Z,55.90
2023-06-07T21:41:27.770Z,56.30
2023-06-07T21:44:14.834Z,56.10
2023-06-07T21:47:00.788Z,56.10
2023-06-07T21:49:47.905Z,57.10
2023-06-07T21:52:33.656Z,56.90
2023-06-07T21:55:19.442Z,56.00
2023-06-07T21:58:05.277Z,55.70
2023-06-07T22:00:51.222Z,56.20
2023-06-07T22:03:37.641Z,56.00
2023-06-07T22:06:23.397Z,56.00
2023-06-07T22:09:09.104Z,55.60
2023-06-07T22:11:55.104Z,55.70
2023-06-07T22:14:45.730Z,56.00
2023-06-07T22:17:31.569Z,55.60
2023-06-07T22:20:20.441Z,56.90
2023-06-07T22:23:07.072Z,56.10
2023-06-07T22:25:52.782Z,57.20
2023-06-07T22:28:41.407Z,56.60
2023-06-07T22:31:29.708Z,56.40
2023-06-07T22:34:15.378Z,55.60
2023-06-07T22:37:00.790Z,56.00
2023-06-07T22:39:47.524Z,56.30
2023-06-07T22:42:33.720Z,56.50
2023-06-07T22:45:19.573Z,56.40
2023-06-07T22:48:08.703Z,56.80
2023-06-07T22:50:54.514Z,59.20
2023-06-07T22:53:40.257Z,57.70
2023-06-07T22:56:26.076Z,58.30
2023-06-07T22:59:11.800Z,57.80
2023-06-07T23:01:57.192Z,58.40
2023-06-07T23:04:43.264Z,59.00
2023-06-07T23:07:29.125Z,60.10
2023-06-07T23:10:15.181Z,59.30
2023-06-07T23:13:01.328Z,59.60
2023-06-07T23:15:47.132Z,58.70
2023-06-07T23:18:32.982Z,60.00
2023-06-07T23:21:18.502Z,58.90
2023-06-07T23:24:04.243Z,59.20
2023-06-07T23:26:49.832Z,60.60
2023-06-07T23:29:35.324Z,59.60
2023-06-07T23:32:20.836Z,60.90
2023-06-07T23:35:06.864Z,60.00
2023-06-07T23:37:52.767Z,60.00
2023-06-07T23:40:38.814Z,60.20
2023-06-07T23:43:24.538Z,60.00
2023-06-07T23:46:10.145Z,60.60
2023-06-07T23:48:55.573Z,60.50
2023-06-07T23:51:40.935Z,60.10
2023-06-07T23:54:27.040Z,60.10
2023-06-07T23:57:13.809Z,59.70
2023-06-07T23:59:59.631Z,59.20
